sensor_id;sensor_type;location;lat;lon;timestamp;P1;durP1;ratioP1;P2;durP2;ratioP2
45618;SDS011;31343;47.520;19.144;2022-07-29T00:02:03;3.60;;;2.60;;
45618;SDS011;31343;47.520;19.144;2022-07-29T00:04:29;5.45;;;2.92;;
45618;SDS011;31343;47.520;19.144;2022-07-29T00:06:55;4.15;;;2.67;;
45618;SDS011;31343;47.520;19.144;2022-07-29T00:09:20;4.65;;;2.35;;
45618;SDS011;31343;47.520;19.144;2022-07-29T00:11:46;3.53;;;2.40;;
45618;SDS011;31343;47.520;19.144;2022-07-29T00:14:12;3.30;;;2.78;;
45618;SDS011;31343;47.520;19.144;2022-07-29T00:16:37;3.20;;;2.65;;
45618;SDS011;31343;47.520;19.144;2022-07-29T00:19:03;4.45;;;2.85;;
45618;SDS011;31343;47.520;19.144;2022-07-29T00:21:29;3.33;;;2.22;;
45618;SDS011;31343;47.520;19.144;2022-07-29T00:23:54;4.15;;;2.83;;
45618;SDS011;31343;47.520;19.144;2022-07-29T00:26:20;3.38;;;2.42;;
45618;SDS011;31343;47.520;19.144;2022-07-29T00:28:46;4.00;;;2.20;;
45618;SDS011;31343;47.520;19.144;2022-07-29T00:31:12;5.22;;;2.65;;
45618;SDS011;31343;47.520;19.144;2022-07-29T00:33:37;3.30;;;2.35;;
45618;SDS011;31343;47.520;19.144;2022-07-29T00:36:03;4.22;;;2.47;;
45618;SDS011;31343;47.520;19.144;2022-07-29T00:38:29;2.60;;;2.10;;
45618;SDS011;31343;47.520;19.144;2022-07-29T00:40:54;5.10;;;2.75;;
45618;SDS011;31343;47.520;19.144;2022-07-29T00:43:20;3.85;;;2.67;;
45618;SDS011;31343;47.520;19.144;2022-07-29T00:45:46;3.92;;;2.33;;
45618;SDS011;31343;47.520;19.144;2022-07-29T00:48:11;3.95;;;2.53;;
45618;SDS011;31343;47.520;19.144;2022-07-29T00:50:37;4.60;;;2.90;;
45618;SDS011;31343;47.520;19.144;2022-07-29T00:53:04;3.15;;;2.58;;
45618;SDS011;31343;47.520;19.144;2022-07-29T00:55:31;3.55;;;2.65;;
45618;SDS011;31343;47.520;19.144;2022-07-29T00:57:57;3.08;;;2.67;;
45618;SDS011;31343;47.520;19.144;2022-07-29T01:00:25;4.00;;;2.47;;
45618;SDS011;31343;47.520;19.144;2022-07-29T01:02:51;5.65;;;2.95;;
45618;SDS011;31343;47.520;19.144;2022-07-29T01:05:18;3.50;;;2.67;;
45618;SDS011;31343;47.520;19.144;2022-07-29T01:07:46;4.47;;;2.58;;
45618;SDS011;31343;47.520;19.144;2022-07-29T01:10:13;5.65;;;2.78;;
45618;SDS011;31343;47.520;19.144;2022-07-29T01:12:40;5.65;;;3.03;;
45618;SDS011;31343;47.520;19.144;2022-07-29T01:15:08;5.32;;;2.70;;
45618;SDS011;31343;47.520;19.144;2022-07-29T01:23:01;3.63;;;2.80;;
45618;SDS011;31343;47.520;19.144;2022-07-29T01:28:39;4.20;;;2.55;;
45618;SDS011;31343;47.520;19.144;2022-07-29T01:31:10;3.53;;;2.60;;
45618;SDS011;31343;47.520;19.144;2022-07-29T01:33:38;4.65;;;2.85;;
45618;SDS011;31343;47.520;19.144;2022-07-29T01:36:17;3.78;;;2.83;;
45618;SDS011;31343;47.520;19.144;2022-07-29T01:38:50;5.20;;;2.95;;
45618;SDS011;31343;47.520;19.144;2022-07-29T01:41:31;3.45;;;2.90;;
45618;SDS011;31343;47.520;19.144;2022-07-29T01:44:01;3.95;;;2.78;;
45618;SDS011;31343;47.520;19.144;2022-07-29T01:46:35;4.13;;;2.85;;
45618;SDS011;31343;47.520;19.144;2022-07-29T01:49:11;4.00;;;3.17;;
45618;SDS011;31343;47.520;19.144;2022-07-29T01:56:48;5.03;;;2.72;;
45618;SDS011;31343;47.520;19.144;2022-07-29T01:59:16;4.50;;;3.38;;
45618;SDS011;31343;47.520;19.144;2022-07-29T02:01:43;3.72;;;2.80;;
45618;SDS011;31343;47.520;19.144;2022-07-29T02:04:12;4.45;;;2.58;;
45618;SDS011;31343;47.520;19.144;2022-07-29T02:06:40;4.55;;;2.97;;
45618;SDS011;31343;47.520;19.144;2022-07-29T02:09:07;5.55;;;3.17;;
45618;SDS011;31343;47.520;19.144;2022-07-29T02:11:35;3.45;;;2.53;;
45618;SDS011;31343;47.520;19.144;2022-07-29T02:14:02;4.32;;;2.97;;
45618;SDS011;31343;47.520;19.144;2022-07-29T02:16:30;3.83;;;2.78;;
45618;SDS011;31343;47.520;19.144;2022-07-29T02:18:58;5.18;;;2.70;;
45618;SDS011;31343;47.520;19.144;2022-07-29T02:21:26;4.15;;;3.63;;
45618;SDS011;31343;47.520;19.144;2022-07-29T02:23:53;4.18;;;2.90;;
45618;SDS011;31343;47.520;19.144;2022-07-29T02:26:21;4.00;;;2.47;;
45618;SDS011;31343;47.520;19.144;2022-07-29T02:28:49;4.28;;;2.97;;
45618;SDS011;31343;47.520;19.144;2022-07-29T02:31:19;3.47;;;2.65;;
45618;SDS011;31343;47.520;19.144;2022-07-29T02:33:48;3.38;;;2.67;;
45618;SDS011;31343;47.520;19.144;2022-07-29T02:36:16;4.13;;;2.83;;
45618;SDS011;31343;47.520;19.144;2022-07-29T02:38:45;3.83;;;2.67;;
45618;SDS011;31343;47.520;19.144;2022-07-29T02:41:40;4.75;;;2.88;;
45618;SDS011;31343;47.520;19.144;2022-07-29T02:44:22;4.03;;;3.00;;
45618;SDS011;31343;47.520;19.144;2022-07-29T02:46:59;4.45;;;3.28;;
45618;SDS011;31343;47.520;19.144;2022-07-29T02:49:32;4.47;;;3.25;;
45618;SDS011;31343;47.520;19.144;2022-07-29T02:55:25;3.80;;;2.95;;
45618;SDS011;31343;47.520;19.144;2022-07-29T02:58:02;4.32;;;3.10;;
45618;SDS011;31343;47.520;19.144;2022-07-29T03:00:34;3.30;;;2.53;;
45618;SDS011;31343;47.520;19.144;2022-07-29T03:03:06;5.13;;;3.13;;
45618;SDS011;31343;47.520;19.144;2022-07-29T03:05:34;5.65;;;3.25;;
45618;SDS011;31343;47.520;19.144;2022-07-29T03:08:01;5.05;;;3.45;;
45618;SDS011;31343;47.520;19.144;2022-07-29T03:10:29;5.20;;;3.08;;
45618;SDS011;31343;47.520;19.144;2022-07-29T03:12:56;4.25;;;3.13;;
45618;SDS011;31343;47.520;19.144;2022-07-29T03:15:22;4.15;;;3.03;;
45618;SDS011;31343;47.520;19.144;2022-07-29T03:17:49;4.35;;;3.05;;
45618;SDS011;31343;47.520;19.144;2022-07-29T03:20:16;4.13;;;3.10;;
45618;SDS011;31343;47.520;19.144;2022-07-29T03:22:42;3.50;;;2.60;;
45618;SDS011;31343;47.520;19.144;2022-07-29T03:25:09;4.30;;;3.08;;
45618;SDS011;31343;47.520;19.144;2022-07-29T03:27:35;4.65;;;3.33;;
45618;SDS011;31343;47.520;19.144;2022-07-29T03:30:01;4.22;;;3.05;;
45618;SDS011;31343;47.520;19.144;2022-07-29T03:32:27;4.50;;;2.80;;
45618;SDS011;31343;47.520;19.144;2022-07-29T03:34:53;5.35;;;3.25;;
45618;SDS011;31343;47.520;19.144;2022-07-29T03:37:19;5.97;;;4.07;;
45618;SDS011;31343;47.520;19.144;2022-07-29T03:39:44;3.83;;;2.75;;
45618;SDS011;31343;47.520;19.144;2022-07-29T03:42:13;6.72;;;3.10;;
45618;SDS011;31343;47.520;19.144;2022-07-29T03:44:41;4.40;;;3.40;;
45618;SDS011;31343;47.520;19.144;2022-07-29T03:47:10;6.25;;;4.20;;
45618;SDS011;31343;47.520;19.144;2022-07-29T03:49:38;5.18;;;3.47;;
45618;SDS011;31343;47.520;19.144;2022-07-29T03:52:05;4.38;;;3.05;;
45618;SDS011;31343;47.520;19.144;2022-07-29T03:54:31;4.65;;;3.58;;
45618;SDS011;31343;47.520;19.144;2022-07-29T03:56:58;4.47;;;3.53;;
45618;SDS011;31343;47.520;19.144;2022-07-29T03:59:25;5.45;;;3.28;;
45618;SDS011;31343;47.520;19.144;2022-07-29T04:01:52;5.22;;;3.42;;
45618;SDS011;31343;47.520;19.144;2022-07-29T04:04:20;5.03;;;3.38;;
45618;SDS011;31343;47.520;19.144;2022-07-29T04:06:46;4.75;;;3.60;;
45618;SDS011;31343;47.520;19.144;2022-07-29T04:09:12;4.60;;;3.60;;
45618;SDS011;31343;47.520;19.144;2022-07-29T04:11:38;4.50;;;3.63;;
45618;SDS011;31343;47.520;19.144;2022-07-29T04:14:04;4.20;;;3.25;;
45618;SDS011;31343;47.520;19.144;2022-07-29T04:16:30;4.93;;;3.47;;
45618;SDS011;31343;47.520;19.144;2022-07-29T04:18:56;3.97;;;3.30;;
45618;SDS011;31343;47.520;19.144;2022-07-29T04:21:22;4.88;;;3.65;;
45618;SDS011;31343;47.520;19.144;2022-07-29T04:23:48;4.10;;;3.00;;
45618;SDS011;31343;47.520;19.144;2022-07-29T04:26:17;4.32;;;3.22;;
45618;SDS011;31343;47.520;19.144;2022-07-29T04:28:44;4.85;;;3.33;;
45618;SDS011;31343;47.520;19.144;2022-07-29T04:31:10;4.88;;;3.10;;
45618;SDS011;31343;47.520;19.144;2022-07-29T04:33:36;3.80;;;3.10;;
45618;SDS011;31343;47.520;19.144;2022-07-29T04:36:02;4.45;;;2.88;;
45618;SDS011;31343;47.520;19.144;2022-07-29T04:38:28;4.88;;;3.17;;
45618;SDS011;31343;47.520;19.144;2022-07-29T04:40:53;4.35;;;3.17;;
45618;SDS011;31343;47.520;19.144;2022-07-29T04:43:19;4.85;;;3.30;;
45618;SDS011;31343;47.520;19.144;2022-07-29T04:45:45;5.20;;;3.45;;
45618;SDS011;31343;47.520;19.144;2022-07-29T04:48:10;5.10;;;3.30;;
45618;SDS011;31343;47.520;19.144;2022-07-29T04:50:39;4.47;;;3.10;;
45618;SDS011;31343;47.520;19.144;2022-07-29T04:53:05;3.88;;;2.83;;
45618;SDS011;31343;47.520;19.144;2022-07-29T04:55:32;4.88;;;3.38;;
45618;SDS011;31343;47.520;19.144;2022-07-29T04:57:58;4.30;;;3.30;;
45618;SDS011;31343;47.520;19.144;2022-07-29T05:00:24;4.05;;;3.25;;
45618;SDS011;31343;47.520;19.144;2022-07-29T05:02:49;5.95;;;3.15;;
45618;SDS011;31343;47.520;19.144;2022-07-29T05:05:15;4.45;;;3.00;;
45618;SDS011;31343;47.520;19.144;2022-07-29T05:07:40;5.43;;;3.20;;
45618;SDS011;31343;47.520;19.144;2022-07-29T05:10:06;4.32;;;2.53;;
45618;SDS011;31343;47.520;19.144;2022-07-29T05:12:32;5.57;;;3.30;;
45618;SDS011;31343;47.520;19.144;2022-07-29T05:14:58;4.90;;;3.13;;
45618;SDS011;31343;47.520;19.144;2022-07-29T05:17:24;3.70;;;2.50;;
45618;SDS011;31343;47.520;19.144;2022-07-29T05:19:50;4.10;;;3.00;;
45618;SDS011;31343;47.520;19.144;2022-07-29T05:22:16;6.07;;;3.40;;
45618;SDS011;31343;47.520;19.144;2022-07-29T05:24:43;5.75;;;2.80;;
45618;SDS011;31343;47.520;19.144;2022-07-29T05:27:09;4.20;;;2.80;;
45618;SDS011;31343;47.520;19.144;2022-07-29T05:29:35;6.00;;;3.10;;
45618;SDS011;31343;47.520;19.144;2022-07-29T05:32:00;3.63;;;2.70;;
45618;SDS011;31343;47.520;19.144;2022-07-29T05:34:26;3.67;;;2.60;;
45618;SDS011;31343;47.520;19.144;2022-07-29T05:36:52;5.72;;;2.88;;
45618;SDS011;31343;47.520;19.144;2022-07-29T05:39:18;3.55;;;2.88;;
45618;SDS011;31343;47.520;19.144;2022-07-29T05:41:43;4.75;;;2.63;;
45618;SDS011;31343;47.520;19.144;2022-07-29T05:44:09;3.30;;;2.20;;
45618;SDS011;31343;47.520;19.144;2022-07-29T05:46:36;3.65;;;2.70;;
45618;SDS011;31343;47.520;19.144;2022-07-29T05:49:02;3.90;;;3.17;;
45618;SDS011;31343;47.520;19.144;2022-07-29T05:51:27;5.38;;;2.50;;
45618;SDS011;31343;47.520;19.144;2022-07-29T05:53:54;4.00;;;2.70;;
45618;SDS011;31343;47.520;19.144;2022-07-29T05:56:20;3.83;;;2.78;;
45618;SDS011;31343;47.520;19.144;2022-07-29T05:58:46;3.25;;;2.28;;
45618;SDS011;31343;47.520;19.144;2022-07-29T06:01:11;4.55;;;2.60;;
45618;SDS011;31343;47.520;19.144;2022-07-29T06:03:37;3.70;;;2.58;;
45618;SDS011;31343;47.520;19.144;2022-07-29T06:06:03;4.93;;;2.90;;
45618;SDS011;31343;47.520;19.144;2022-07-29T06:08:30;5.70;;;3.28;;
45618;SDS011;31343;47.520;19.144;2022-07-29T06:10:58;3.78;;;2.72;;
45618;SDS011;31343;47.520;19.144;2022-07-29T06:13:24;4.35;;;2.60;;
45618;SDS011;31343;47.520;19.144;2022-07-29T06:15:50;4.10;;;2.53;;
45618;SDS011;31343;47.520;19.144;2022-07-29T06:18:16;4.43;;;2.40;;
45618;SDS011;31343;47.520;19.144;2022-07-29T06:20:41;4.78;;;2.97;;
45618;SDS011;31343;47.520;19.144;2022-07-29T06:23:07;4.72;;;2.60;;
45618;SDS011;31343;47.520;19.144;2022-07-29T06:25:33;3.70;;;2.60;;
45618;SDS011;31343;47.520;19.144;2022-07-29T06:28:00;3.85;;;2.55;;
45618;SDS011;31343;47.520;19.144;2022-07-29T06:30:26;3.72;;;2.50;;
45618;SDS011;31343;47.520;19.144;2022-07-29T06:32:53;4.90;;;2.90;;
45618;SDS011;31343;47.520;19.144;2022-07-29T06:35:19;4.72;;;2.75;;
45618;SDS011;31343;47.520;19.144;2022-07-29T06:37:45;4.10;;;2.90;;
45618;SDS011;31343;47.520;19.144;2022-07-29T06:40:10;3.78;;;2.70;;
45618;SDS011;31343;47.520;19.144;2022-07-29T06:42:55;4.05;;;2.88;;
45618;SDS011;31343;47.520;19.144;2022-07-29T06:45:20;4.88;;;2.90;;
45618;SDS011;31343;47.520;19.144;2022-07-29T06:47:46;7.18;;;4.10;;
45618;SDS011;31343;47.520;19.144;2022-07-29T06:50:13;5.60;;;3.53;;
45618;SDS011;31343;47.520;19.144;2022-07-29T06:52:40;4.05;;;3.03;;
45618;SDS011;31343;47.520;19.144;2022-07-29T06:55:05;5.13;;;3.03;;
45618;SDS011;31343;47.520;19.144;2022-07-29T06:57:32;3.63;;;2.78;;
45618;SDS011;31343;47.520;19.144;2022-07-29T06:59:57;3.50;;;2.80;;
45618;SDS011;31343;47.520;19.144;2022-07-29T07:02:23;5.93;;;3.10;;
45618;SDS011;31343;47.520;19.144;2022-07-29T07:04:49;3.63;;;2.90;;
45618;SDS011;31343;47.520;19.144;2022-07-29T07:07:14;4.90;;;2.67;;
45618;SDS011;31343;47.520;19.144;2022-07-29T07:09:40;6.25;;;3.28;;
45618;SDS011;31343;47.520;19.144;2022-07-29T07:12:06;5.93;;;2.70;;
45618;SDS011;31343;47.520;19.144;2022-07-29T07:14:31;3.50;;;2.67;;
45618;SDS011;31343;47.520;19.144;2022-07-29T07:16:57;3.90;;;2.80;;
45618;SDS011;31343;47.520;19.144;2022-07-29T07:19:25;3.83;;;2.53;;
45618;SDS011;31343;47.520;19.144;2022-07-29T07:21:52;4.53;;;2.53;;
45618;SDS011;31343;47.520;19.144;2022-07-29T07:24:18;4.07;;;2.65;;
45618;SDS011;31343;47.520;19.144;2022-07-29T07:26:44;5.40;;;3.00;;
45618;SDS011;31343;47.520;19.144;2022-07-29T07:29:10;4.10;;;2.53;;
45618;SDS011;31343;47.520;19.144;2022-07-29T07:31:36;3.88;;;2.78;;
45618;SDS011;31343;47.520;19.144;2022-07-29T07:34:02;4.03;;;3.10;;
45618;SDS011;31343;47.520;19.144;2022-07-29T07:36:29;3.33;;;2.53;;
45618;SDS011;31343;47.520;19.144;2022-07-29T07:38:54;4.05;;;2.58;;
45618;SDS011;31343;47.520;19.144;2022-07-29T07:41:20;4.60;;;3.25;;
45618;SDS011;31343;47.520;19.144;2022-07-29T07:43:46;5.55;;;3.03;;
45618;SDS011;31343;47.520;19.144;2022-07-29T07:46:12;4.05;;;2.88;;
45618;SDS011;31343;47.520;19.144;2022-07-29T07:48:38;4.20;;;3.13;;
45618;SDS011;31343;47.520;19.144;2022-07-29T07:51:03;3.60;;;2.70;;
45618;SDS011;31343;47.520;19.144;2022-07-29T07:53:29;4.05;;;3.03;;
45618;SDS011;31343;47.520;19.144;2022-07-29T07:55:55;3.53;;;2.75;;
45618;SDS011;31343;47.520;19.144;2022-07-29T07:58:21;4.47;;;3.00;;
45618;SDS011;31343;47.520;19.144;2022-07-29T08:00:47;3.67;;;2.60;;
45618;SDS011;31343;47.520;19.144;2022-07-29T08:03:12;3.72;;;3.17;;
45618;SDS011;31343;47.520;19.144;2022-07-29T08:05:39;3.92;;;2.83;;
45618;SDS011;31343;47.520;19.144;2022-07-29T08:08:05;4.60;;;2.80;;
45618;SDS011;31343;47.520;19.144;2022-07-29T08:10:31;3.55;;;2.75;;
45618;SDS011;31343;47.520;19.144;2022-07-29T08:13:15;4.13;;;3.22;;
45618;SDS011;31343;47.520;19.144;2022-07-29T08:15:41;3.30;;;2.33;;
45618;SDS011;31343;47.520;19.144;2022-07-29T08:18:09;4.18;;;3.45;;
45618;SDS011;31343;47.520;19.144;2022-07-29T08:20:35;4.20;;;3.10;;
45618;SDS011;31343;47.520;19.144;2022-07-29T08:23:03;3.75;;;2.90;;
45618;SDS011;31343;47.520;19.144;2022-07-29T08:25:29;3.75;;;2.97;;
45618;SDS011;31343;47.520;19.144;2022-07-29T08:27:55;3.47;;;2.58;;
45618;SDS011;31343;47.520;19.144;2022-07-29T08:30:21;4.47;;;2.85;;
45618;SDS011;31343;47.520;19.144;2022-07-29T08:32:47;4.50;;;3.15;;
45618;SDS011;31343;47.520;19.144;2022-07-29T08:35:14;4.25;;;3.45;;
45618;SDS011;31343;47.520;19.144;2022-07-29T08:37:39;3.63;;;2.72;;
45618;SDS011;31343;47.520;19.144;2022-07-29T08:40:05;4.13;;;3.38;;
45618;SDS011;31343;47.520;19.144;2022-07-29T08:42:31;3.90;;;2.80;;
45618;SDS011;31343;47.520;19.144;2022-07-29T08:44:57;4.57;;;3.63;;
45618;SDS011;31343;47.520;19.144;2022-07-29T08:47:23;4.35;;;3.70;;
45618;SDS011;31343;47.520;19.144;2022-07-29T08:49:51;2.92;;;2.55;;
45618;SDS011;31343;47.520;19.144;2022-07-29T08:52:17;4.53;;;3.22;;
45618;SDS011;31343;47.520;19.144;2022-07-29T08:54:44;4.45;;;3.28;;
45618;SDS011;31343;47.520;19.144;2022-07-29T08:57:14;4.60;;;3.33;;
45618;SDS011;31343;47.520;19.144;2022-07-29T08:59:40;3.95;;;3.20;;
45618;SDS011;31343;47.520;19.144;2022-07-29T09:02:10;3.90;;;3.20;;
45618;SDS011;31343;47.520;19.144;2022-07-29T09:04:44;3.50;;;2.50;;
45618;SDS011;31343;47.520;19.144;2022-07-29T09:07:13;4.75;;;3.00;;
45618;SDS011;31343;47.520;19.144;2022-07-29T09:09:40;3.50;;;2.92;;
45618;SDS011;31343;47.520;19.144;2022-07-29T09:12:06;4.63;;;3.30;;
45618;SDS011;31343;47.520;19.144;2022-07-29T09:14:33;4.85;;;2.90;;
45618;SDS011;31343;47.520;19.144;2022-07-29T09:16:59;4.65;;;2.92;;
45618;SDS011;31343;47.520;19.144;2022-07-29T09:19:33;3.08;;;2.78;;
45618;SDS011;31343;47.520;19.144;2022-07-29T09:22:00;5.22;;;3.10;;
45618;SDS011;31343;47.520;19.144;2022-07-29T09:27:24;3.80;;;2.80;;
45618;SDS011;31343;47.520;19.144;2022-07-29T09:29:56;3.92;;;2.90;;
45618;SDS011;31343;47.520;19.144;2022-07-29T09:32:22;3.63;;;2.63;;
45618;SDS011;31343;47.520;19.144;2022-07-29T09:34:48;4.15;;;2.80;;
45618;SDS011;31343;47.520;19.144;2022-07-29T09:37:29;4.80;;;2.83;;
45618;SDS011;31343;47.520;19.144;2022-07-29T09:39:55;4.38;;;3.13;;
45618;SDS011;31343;47.520;19.144;2022-07-29T09:42:27;4.85;;;3.03;;
45618;SDS011;31343;47.520;19.144;2022-07-29T09:47:19;3.40;;;3.00;;
45618;SDS011;31343;47.520;19.144;2022-07-29T09:49:53;4.97;;;3.22;;
45618;SDS011;31343;47.520;19.144;2022-07-29T09:52:22;3.13;;;2.65;;
45618;SDS011;31343;47.520;19.144;2022-07-29T09:54:48;3.72;;;2.55;;
45618;SDS011;31343;47.520;19.144;2022-07-29T09:57:26;4.18;;;2.60;;
45618;SDS011;31343;47.520;19.144;2022-07-29T10:02:29;3.63;;;2.70;;
45618;SDS011;31343;47.520;19.144;2022-07-29T10:04:57;3.95;;;2.65;;
45618;SDS011;31343;47.520;19.144;2022-07-29T10:07:22;3.05;;;2.20;;
45618;SDS011;31343;47.520;19.144;2022-07-29T10:09:53;4.60;;;2.97;;
45618;SDS011;31343;47.520;19.144;2022-07-29T10:12:20;4.15;;;2.85;;
45618;SDS011;31343;47.520;19.144;2022-07-29T10:14:45;4.15;;;2.40;;
45618;SDS011;31343;47.520;19.144;2022-07-29T10:17:12;3.45;;;2.28;;
45618;SDS011;31343;47.520;19.144;2022-07-29T10:19:38;4.40;;;2.40;;
45618;SDS011;31343;47.520;19.144;2022-07-29T10:22:05;3.10;;;2.15;;
45618;SDS011;31343;47.520;19.144;2022-07-29T10:24:33;4.28;;;2.53;;
45618;SDS011;31343;47.520;19.144;2022-07-29T10:27:01;3.60;;;2.58;;
45618;SDS011;31343;47.520;19.144;2022-07-29T10:29:28;3.92;;;2.90;;
45618;SDS011;31343;47.520;19.144;2022-07-29T10:43:50;4.85;;;2.80;;
45618;SDS011;31343;47.520;19.144;2022-07-29T10:46:17;3.50;;;2.30;;
45618;SDS011;31343;47.520;19.144;2022-07-29T10:54:36;4.50;;;2.75;;
45618;SDS011;31343;47.520;19.144;2022-07-29T10:59:43;4.00;;;2.75;;
45618;SDS011;31343;47.520;19.144;2022-07-29T11:04:58;3.58;;;2.53;;
45618;SDS011;31343;47.520;19.144;2022-07-29T11:07:28;2.95;;;2.53;;
45618;SDS011;31343;47.520;19.144;2022-07-29T11:15:18;4.28;;;2.08;;
45618;SDS011;31343;47.520;19.144;2022-07-29T11:22:58;4.00;;;2.58;;
45618;SDS011;31343;47.520;19.144;2022-07-29T11:25:24;5.40;;;2.08;;
45618;SDS011;31343;47.520;19.144;2022-07-29T11:27:51;3.15;;;2.15;;
45618;SDS011;31343;47.520;19.144;2022-07-29T11:30:19;3.45;;;2.28;;
45618;SDS011;31343;47.520;19.144;2022-07-29T11:32:44;3.03;;;2.00;;
45618;SDS011;31343;47.520;19.144;2022-07-29T11:35:18;2.92;;;1.80;;
45618;SDS011;31343;47.520;19.144;2022-07-29T11:37:46;4.25;;;2.22;;
45618;SDS011;31343;47.520;19.144;2022-07-29T11:40:32;4.28;;;2.20;;
45618;SDS011;31343;47.520;19.144;2022-07-29T11:42:58;2.58;;;2.10;;
45618;SDS011;31343;47.520;19.144;2022-07-29T11:45:25;3.45;;;2.30;;
45618;SDS011;31343;47.520;19.144;2022-07-29T11:48:14;3.30;;;1.88;;
45618;SDS011;31343;47.520;19.144;2022-07-29T11:50:41;2.85;;;2.00;;
45618;SDS011;31343;47.520;19.144;2022-07-29T11:53:10;4.00;;;2.33;;
45618;SDS011;31343;47.520;19.144;2022-07-29T11:55:37;5.28;;;2.10;;
45618;SDS011;31343;47.520;19.144;2022-07-29T11:58:04;3.30;;;2.15;;
45618;SDS011;31343;47.520;19.144;2022-07-29T12:00:31;2.63;;;1.98;;
45618;SDS011;31343;47.520;19.144;2022-07-29T12:03:06;2.90;;;1.90;;
45618;SDS011;31343;47.520;19.144;2022-07-29T12:05:43;3.35;;;1.92;;
45618;SDS011;31343;47.520;19.144;2022-07-29T12:10:44;2.67;;;1.92;;
45618;SDS011;31343;47.520;19.144;2022-07-29T12:13:11;3.70;;;2.13;;
45618;SDS011;31343;47.520;19.144;2022-07-29T12:15:37;2.70;;;1.80;;
45618;SDS011;31343;47.520;19.144;2022-07-29T12:18:10;2.42;;;1.65;;
45618;SDS011;31343;47.520;19.144;2022-07-29T12:20:41;2.65;;;1.80;;
45618;SDS011;31343;47.520;19.144;2022-07-29T12:23:07;2.97;;;1.90;;
45618;SDS011;31343;47.520;19.144;2022-07-29T12:25:36;3.47;;;2.20;;
45618;SDS011;31343;47.520;19.144;2022-07-29T12:28:04;2.60;;;1.70;;
45618;SDS011;31343;47.520;19.144;2022-07-29T12:30:41;2.97;;;2.15;;
45618;SDS011;31343;47.520;19.144;2022-07-29T12:33:10;3.72;;;2.83;;
45618;SDS011;31343;47.520;19.144;2022-07-29T12:35:49;2.53;;;1.88;;
45618;SDS011;31343;47.520;19.144;2022-07-29T12:38:19;3.13;;;2.20;;
45618;SDS011;31343;47.520;19.144;2022-07-29T12:40:45;2.42;;;1.90;;
45618;SDS011;31343;47.520;19.144;2022-07-29T12:43:16;3.10;;;1.88;;
45618;SDS011;31343;47.520;19.144;2022-07-29T12:45:45;3.05;;;2.00;;
45618;SDS011;31343;47.520;19.144;2022-07-29T12:48:15;2.85;;;1.92;;
45618;SDS011;31343;47.520;19.144;2022-07-29T12:50:52;3.13;;;2.25;;
45618;SDS011;31343;47.520;19.144;2022-07-29T12:53:24;3.78;;;1.85;;
45618;SDS011;31343;47.520;19.144;2022-07-29T12:55:52;3.22;;;1.77;;
45618;SDS011;31343;47.520;19.144;2022-07-29T12:58:35;2.85;;;1.83;;
45618;SDS011;31343;47.520;19.144;2022-07-29T13:01:10;2.55;;;1.70;;
45618;SDS011;31343;47.520;19.144;2022-07-29T13:03:53;3.33;;;2.20;;
45618;SDS011;31343;47.520;19.144;2022-07-29T13:06:28;4.07;;;1.92;;
45618;SDS011;31343;47.520;19.144;2022-07-29T13:09:20;2.60;;;2.10;;
45618;SDS011;31343;47.520;19.144;2022-07-29T13:11:50;3.15;;;2.13;;
45618;SDS011;31343;47.520;19.144;2022-07-29T13:17:06;3.28;;;2.20;;
45618;SDS011;31343;47.520;19.144;2022-07-29T13:22:09;2.92;;;2.28;;
45618;SDS011;31343;47.520;19.144;2022-07-29T13:24:59;3.05;;;2.50;;
45618;SDS011;31343;47.520;19.144;2022-07-29T13:27:28;3.92;;;2.25;;
45618;SDS011;31343;47.520;19.144;2022-07-29T13:29:56;4.05;;;2.30;;
45618;SDS011;31343;47.520;19.144;2022-07-29T13:32:26;4.13;;;2.15;;
45618;SDS011;31343;47.520;19.144;2022-07-29T13:34:54;3.10;;;2.30;;
45618;SDS011;31343;47.520;19.144;2022-07-29T13:37:21;3.42;;;2.45;;
45618;SDS011;31343;47.520;19.144;2022-07-29T13:39:46;2.80;;;2.20;;
45618;SDS011;31343;47.520;19.144;2022-07-29T13:42:12;3.03;;;2.20;;
45618;SDS011;31343;47.520;19.144;2022-07-29T13:44:38;4.22;;;2.40;;
45618;SDS011;31343;47.520;19.144;2022-07-29T13:47:05;3.05;;;2.25;;
45618;SDS011;31343;47.520;19.144;2022-07-29T13:49:31;3.33;;;2.20;;
45618;SDS011;31343;47.520;19.144;2022-07-29T13:51:57;3.72;;;2.08;;
45618;SDS011;31343;47.520;19.144;2022-07-29T13:54:23;4.20;;;2.20;;
45618;SDS011;31343;47.520;19.144;2022-07-29T13:56:49;3.53;;;2.22;;
45618;SDS011;31343;47.520;19.144;2022-07-29T13:59:16;3.53;;;2.33;;
45618;SDS011;31343;47.520;19.144;2022-07-29T14:01:41;2.60;;;2.00;;
45618;SDS011;31343;47.520;19.144;2022-07-29T14:04:07;3.55;;;2.17;;
45618;SDS011;31343;47.520;19.144;2022-07-29T14:06:33;3.45;;;2.28;;
45618;SDS011;31343;47.520;19.144;2022-07-29T14:08:59;4.35;;;2.70;;
45618;SDS011;31343;47.520;19.144;2022-07-29T14:11:25;4.10;;;2.50;;
45618;SDS011;31343;47.520;19.144;2022-07-29T14:13:50;4.32;;;2.35;;
45618;SDS011;31343;47.520;19.144;2022-07-29T14:16:16;3.00;;;2.30;;
45618;SDS011;31343;47.520;19.144;2022-07-29T14:18:42;3.08;;;2.30;;
45618;SDS011;31343;47.520;19.144;2022-07-29T14:21:08;3.95;;;2.50;;
45618;SDS011;31343;47.520;19.144;2022-07-29T14:23:34;3.10;;;2.20;;
45618;SDS011;31343;47.520;19.144;2022-07-29T14:25:59;3.42;;;2.30;;
45618;SDS011;31343;47.520;19.144;2022-07-29T14:28:25;2.65;;;2.00;;
45618;SDS011;31343;47.520;19.144;2022-07-29T14:30:51;2.80;;;2.05;;
45618;SDS011;31343;47.520;19.144;2022-07-29T14:33:16;3.70;;;2.28;;
45618;SDS011;31343;47.520;19.144;2022-07-29T14:35:42;3.95;;;2.42;;
45618;SDS011;31343;47.520;19.144;2022-07-29T14:38:08;3.22;;;2.40;;
45618;SDS011;31343;47.520;19.144;2022-07-29T14:40:34;3.40;;;2.35;;
45618;SDS011;31343;47.520;19.144;2022-07-29T14:42:59;3.60;;;2.83;;
45618;SDS011;31343;47.520;19.144;2022-07-29T14:45:26;3.65;;;2.60;;
45618;SDS011;31343;47.520;19.144;2022-07-29T14:47:53;4.43;;;2.53;;
45618;SDS011;31343;47.520;19.144;2022-07-29T14:50:19;3.63;;;2.67;;
45618;SDS011;31343;47.520;19.144;2022-07-29T14:52:45;3.05;;;2.30;;
45618;SDS011;31343;47.520;19.144;2022-07-29T14:55:11;3.15;;;2.13;;
45618;SDS011;31343;47.520;19.144;2022-07-29T14:57:37;4.18;;;2.70;;
45618;SDS011;31343;47.520;19.144;2022-07-29T15:00:03;3.35;;;2.58;;
45618;SDS011;31343;47.520;19.144;2022-07-29T15:02:31;5.35;;;2.70;;
45618;SDS011;31343;47.520;19.144;2022-07-29T15:04:57;3.83;;;2.50;;
45618;SDS011;31343;47.520;19.144;2022-07-29T15:07:23;3.47;;;2.58;;
45618;SDS011;31343;47.520;19.144;2022-07-29T15:09:49;4.28;;;2.75;;
45618;SDS011;31343;47.520;19.144;2022-07-29T15:12:14;4.43;;;2.83;;
45618;SDS011;31343;47.520;19.144;2022-07-29T15:14:40;3.60;;;2.50;;
45618;SDS011;31343;47.520;19.144;2022-07-29T15:17:06;3.97;;;2.85;;
45618;SDS011;31343;47.520;19.144;2022-07-29T15:19:32;3.72;;;2.55;;
45618;SDS011;31343;47.520;19.144;2022-07-29T15:21:57;3.33;;;2.30;;
45618;SDS011;31343;47.520;19.144;2022-07-29T15:24:23;3.25;;;2.50;;
45618;SDS011;31343;47.520;19.144;2022-07-29T15:26:49;3.45;;;2.38;;
45618;SDS011;31343;47.520;19.144;2022-07-29T15:29:15;3.38;;;2.55;;
45618;SDS011;31343;47.520;19.144;2022-07-29T15:31:41;5.35;;;2.75;;
45618;SDS011;31343;47.520;19.144;2022-07-29T15:34:07;4.88;;;2.90;;
45618;SDS011;31343;47.520;19.144;2022-07-29T15:36:33;4.38;;;2.25;;
45618;SDS011;31343;47.520;19.144;2022-07-29T15:38:59;3.10;;;2.53;;
45618;SDS011;31343;47.520;19.144;2022-07-29T15:41:25;4.78;;;2.85;;
45618;SDS011;31343;47.520;19.144;2022-07-29T15:43:50;3.97;;;2.88;;